createdAt,value
2018-03-20T00:02:08.134Z,-9.20
2018-03-20T00:04:35.638Z,-9.20
2018-03-20T00:07:03.900Z,-9.20
2018-03-20T00:09:31.389Z,-9.20
2018-03-20T00:11:58.900Z,-9.10
2018-03-20T00:14:27.186Z,-9.10
2018-03-20T00:16:54.695Z,-9.10
2018-03-20T00:19:22.190Z,-9.20
2018-03-20T00:21:49.682Z,-9.20
2018-03-20T00:24:17.198Z,-9.30
2018-03-20T00:26:44.687Z,-9.40
2018-03-20T00:29:12.935Z,-9.50
2018-03-20T00:31:40.447Z,-9.50
2018-03-20T00:34:07.925Z,-9.50
2018-03-20T00:36:35.415Z,-9.50
2018-03-20T00:39:02.926Z,-9.40
2018-03-20T00:41:30.422Z,-9.40
2018-03-20T00:43:57.913Z,-9.30
2018-03-20T00:46:26.199Z,-9.10
2018-03-20T00:48:54.446Z,-9.10
2018-03-20T00:51:21.938Z,-9.10
2018-03-20T00:53:49.438Z,-9.10
2018-03-20T00:56:16.928Z,-9.00
2018-03-20T00:58:44.434Z,-9.10
2018-03-20T01:01:11.918Z,-9.00
2018-03-20T01:03:40.926Z,-8.90
2018-03-20T01:06:08.438Z,-8.90
2018-03-20T01:08:35.915Z,-8.90
2018-03-20T01:11:03.402Z,-8.90
2018-03-20T01:13:30.922Z,-8.90
2018-03-20T01:15:58.407Z,-8.90
2018-03-20T01:18:25.901Z,-9.00
2018-03-20T01:20:53.669Z,-9.00
2018-03-20T01:23:21.172Z,-9.20
2018-03-20T01:25:49.450Z,-9.40
2018-03-20T01:28:16.964Z,-9.40
2018-03-20T01:30:44.447Z,-9.60
2018-03-20T01:33:11.926Z,-9.60
2018-03-20T01:35:40.190Z,-9.70
2018-03-20T01:38:07.665Z,-9.70
2018-03-20T01:40:35.149Z,-9.60
2018-03-20T01:43:03.415Z,-9.40
2018-03-20T01:45:31.676Z,-9.40
2018-03-20T01:47:59.158Z,-9.40
2018-03-20T01:50:27.443Z,-9.50
2018-03-20T01:53:07.699Z,-9.50
2018-03-20T01:55:35.218Z,-9.50
2018-03-20T01:58:02.724Z,-9.40
2018-03-20T02:00:30.228Z,-9.50
2018-03-20T02:02:57.735Z,-9.50
2018-03-20T02:05:25.226Z,-9.50
2018-03-20T02:07:52.734Z,-9.50
2018-03-20T02:10:20.988Z,-9.50
2018-03-20T02:12:48.467Z,-9.50
2018-03-20T02:15:16.750Z,-9.50
2018-03-20T02:17:44.998Z,-9.60
2018-03-20T02:20:12.486Z,-9.60
2018-03-20T02:22:39.995Z,-9.60
2018-03-20T02:25:07.499Z,-9.60
2018-03-20T02:27:35.755Z,-9.60
2018-03-20T02:30:03.254Z,-9.70
2018-03-20T02:32:30.772Z,-9.70
2018-03-20T02:34:59.029Z,-9.70
2018-03-20T02:37:26.529Z,-9.70
2018-03-20T02:39:54.032Z,-9.80
2018-03-20T02:42:21.530Z,-9.80
2018-03-20T02:44:49.816Z,-9.80
2018-03-20T02:47:17.310Z,-9.80
2018-03-20T02:49:44.793Z,-10.00
2018-03-20T02:52:12.304Z,-10.20
2018-03-20T02:54:39.796Z,-10.30
2018-03-20T02:57:07.299Z,-10.40
2018-03-20T02:59:35.579Z,-10.50
2018-03-20T03:02:03.082Z,-10.60
2018-03-20T03:04:30.572Z,-10.70
2018-03-20T03:06:58.090Z,-10.70
2018-03-20T03:09:25.580Z,-10.80
2018-03-20T03:11:53.070Z,-10.80
2018-03-20T03:14:20.582Z,-10.90
2018-03-20T03:16:48.069Z,-10.90
2018-03-20T03:19:16.327Z,-10.90
2018-03-20T03:21:43.834Z,-10.90
2018-03-20T03:24:11.321Z,-10.90
2018-03-20T03:26:38.811Z,-10.90
2018-03-20T03:29:07.085Z,-11.00
2018-03-20T03:31:34.626Z,-11.00
2018-03-20T03:34:02.110Z,-11.00
2018-03-20T03:36:30.386Z,-11.00
2018-03-20T03:38:58.638Z,-11.00
2018-03-20T03:41:26.122Z,-11.10
2018-03-20T03:43:54.398Z,-11.10
2018-03-20T03:46:22.651Z,-11.10
2018-03-20T03:48:50.145Z,-11.10
2018-03-20T03:51:17.652Z,-11.10
2018-03-20T03:53:45.137Z,-11.00
2018-03-20T03:56:13.419Z,-10.90
2018-03-20T03:58:41.671Z,-11.00
2018-03-20T04:01:09.159Z,-11.00
2018-03-20T04:03:37.438Z,-11.10
2018-03-20T04:06:05.690Z,-11.30
2018-03-20T04:08:33.179Z,-11.30
2018-03-20T04:11:00.694Z,-11.40
2018-03-20T04:13:28.186Z,-11.50
2018-03-20T04:15:56.441Z,-11.50
2018-03-20T04:18:23.946Z,-11.50
2018-03-20T04:20:51.426Z,-11.50
2018-03-20T04:23:18.931Z,-11.50
2018-03-20T04:25:47.525Z,-11.40
2018-03-20T04:28:15.019Z,-11.50
2018-03-20T04:30:42.524Z,-11.40
2018-03-20T04:33:10.806Z,-11.30
2018-03-20T04:35:39.054Z,-11.40
2018-03-20T04:38:06.580Z,-11.40
2018-03-20T04:40:34.088Z,-11.40
2018-03-20T04:43:02.346Z,-11.40
2018-03-20T04:45:29.834Z,-11.50
2018-03-20T04:47:57.361Z,-11.40
2018-03-20T04:50:24.854Z,-11.40
2018-03-20T04:52:52.346Z,-11.40
2018-03-20T04:55:19.874Z,-11.40
2018-03-20T04:57:47.366Z,-11.50
2018-03-20T05:00:14.869Z,-11.40
2018-03-20T05:02:43.134Z,-11.50
2018-03-20T05:05:10.666Z,-11.50
2018-03-20T05:07:38.188Z,-11.40
2018-03-20T05:10:05.679Z,-11.50
2018-03-20T05:12:33.173Z,-11.50
2018-03-20T05:15:01.453Z,-11.60
2018-03-20T05:17:29.707Z,-11.60
2018-03-20T05:19:57.999Z,-11.60
2018-03-20T05:22:46.149Z,-11.70
2018-03-20T05:25:14.439Z,-11.80
2018-03-20T05:27:41.965Z,-11.70
2018-03-20T05:30:09.456Z,-11.70
2018-03-20T05:32:36.964Z,-11.60
2018-03-20T05:35:04.451Z,-11.50
2018-03-20T05:37:32.706Z,-11.40
2018-03-20T05:40:00.230Z,-11.40
2018-03-20T05:42:27.718Z,-11.30
2018-03-20T05:44:55.205Z,-11.30
2018-03-20T05:47:29.111Z,-11.00
2018-03-20T05:50:02.979Z,-10.90
2018-03-20T05:52:30.485Z,-10.90
2018-03-20T05:54:58.743Z,-10.70
2018-03-20T05:57:27.002Z,-10.60
2018-03-20T05:59:54.505Z,-10.60
2018-03-20T06:02:22.018Z,-10.50
2018-03-20T06:04:49.514Z,-10.40
2018-03-20T06:07:17.037Z,-10.40
2018-03-20T06:09:44.526Z,-10.30
2018-03-20T06:12:12.018Z,-10.20
2018-03-20T06:14:39.521Z,-9.40
2018-03-20T06:17:07.790Z,-4.80
2018-03-20T06:19:35.302Z,-4.80
2018-03-20T06:22:02.787Z,-2.50
2018-03-20T06:24:30.283Z,-2.00
2018-03-20T06:26:58.546Z,0.20
2018-03-20T06:29:26.802Z,1.00
2018-03-20T06:31:54.309Z,1.00
2018-03-20T06:34:21.789Z,1.80
2018-03-20T06:36:49.271Z,2.90
2018-03-20T06:39:16.765Z,3.30
2018-03-20T06:41:45.019Z,2.80
2018-03-20T06:44:12.510Z,2.90
2018-03-20T06:46:40.014Z,3.60
2018-03-20T06:49:07.493Z,2.80
2018-03-20T06:51:35.002Z,3.60
2018-03-20T06:54:02.482Z,4.70
2018-03-20T06:56:29.957Z,5.30
2018-03-20T06:58:57.505Z,5.70
2018-03-20T07:01:24.954Z,6.20
2018-03-20T07:03:52.445Z,6.20
2018-03-20T07:06:20.715Z,7.10
2018-03-20T07:08:48.190Z,7.10
2018-03-20T07:11:16.443Z,5.90
2018-03-20T07:13:43.946Z,5.90
2018-03-20T07:16:11.425Z,7.10
2018-03-20T07:18:38.932Z,6.80
2018-03-20T07:21:07.178Z,8.40
2018-03-20T07:23:34.674Z,8.40
2018-03-20T07:26:02.189Z,7.50
2018-03-20T07:28:29.710Z,8.40
2018-03-20T07:30:57.917Z,8.70
2018-03-20T07:33:25.426Z,8.70
2018-03-20T07:35:52.902Z,9.20
2018-03-20T07:38:20.958Z,8.70
2018-03-20T07:40:48.468Z,6.60
2018-03-20T07:43:15.951Z,4.50
2018-03-20T07:45:44.229Z,2.40
2018-03-20T07:48:12.486Z,2.70
2018-03-20T07:50:39.975Z,2.70
2018-03-20T07:53:07.483Z,3.00
2018-03-20T07:55:34.980Z,3.50
2018-03-20T07:58:03.247Z,5.40
2018-03-20T08:00:31.494Z,6.10
2018-03-20T08:02:58.982Z,6.10
2018-03-20T08:05:27.245Z,7.70
2018-03-20T08:07:54.786Z,7.70
2018-03-20T08:10:22.283Z,9.40
2018-03-20T08:12:50.539Z,9.10
2018-03-20T08:15:18.020Z,9.10
2018-03-20T08:17:46.301Z,6.50
2018-03-20T08:20:13.824Z,6.50
2018-03-20T08:22:41.308Z,5.40
2018-03-20T08:25:09.562Z,4.00
2018-03-20T08:27:37.046Z,4.00
2018-03-20T08:30:04.538Z,3.10
2018-03-20T08:32:32.017Z,3.00
2018-03-20T08:34:59.538Z,2.90
2018-03-20T08:37:27.049Z,2.40
2018-03-20T08:39:55.310Z,1.10
2018-03-20T08:42:22.874Z,1.10
2018-03-20T08:44:50.358Z,1.10
2018-03-20T08:47:18.613Z,0.80
2018-03-20T08:49:46.116Z,0.80
2018-03-20T08:52:13.603Z,0.80
2018-03-20T08:54:41.116Z,0.60
2018-03-20T08:57:08.593Z,0.70
2018-03-20T08:59:36.074Z,0.60
2018-03-20T09:02:03.584Z,0.50
2018-03-20T09:04:31.075Z,0.70
2018-03-20T09:06:58.595Z,0.80
2018-03-20T09:09:26.118Z,0.70
2018-03-20T09:11:53.618Z,1.00
2018-03-20T09:14:21.103Z,1.40
2018-03-20T09:16:48.599Z,2.40
2018-03-20T09:19:16.090Z,2.70
2018-03-20T09:21:43.592Z,2.50
2018-03-20T09:24:11.102Z,2.40
2018-03-20T09:26:38.587Z,2.20
2018-03-20T09:29:06.073Z,1.90
2018-03-20T09:31:33.578Z,1.60
2018-03-20T09:34:01.058Z,1.50
2018-03-20T09:36:28.540Z,1.20
2018-03-20T09:38:56.051Z,1.10
2018-03-20T09:41:23.547Z,1.00
2018-03-20T09:43:51.056Z,0.90
2018-03-20T09:46:19.318Z,0.90
2018-03-20T09:48:47.579Z,1.10
2018-03-20T09:51:15.066Z,1.10
2018-03-20T09:53:43.344Z,1.40
2018-03-20T09:56:10.854Z,1.40
2018-03-20T09:58:38.340Z,1.50
2018-03-20T10:01:05.847Z,1.40
2018-03-20T10:03:33.350Z,1.30
2018-03-20T10:06:00.873Z,0.90
2018-03-20T10:08:28.355Z,0.70
2018-03-20T10:10:55.857Z,0.60
2018-03-20T10:13:23.338Z,0.50
2018-03-20T10:15:50.819Z,0.70
2018-03-20T10:18:18.335Z,0.60
2018-03-20T10:20:45.822Z,0.60
2018-03-20T10:23:13.322Z,0.80
2018-03-20T10:25:41.576Z,0.50
2018-03-20T10:28:09.064Z,0.50
2018-03-20T10:30:37.359Z,0.50
2018-03-20T10:33:04.836Z,0.40
2018-03-20T10:35:32.319Z,0.70
2018-03-20T10:37:59.820Z,1.00
2018-03-20T10:40:27.333Z,1.40
2018-03-20T10:42:54.816Z,1.70
2018-03-20T10:45:22.314Z,1.90
2018-03-20T10:47:49.797Z,1.80
2018-03-20T10:50:17.287Z,1.40
2018-03-20T10:52:45.553Z,1.20
2018-03-20T10:55:13.031Z,1.20
2018-03-20T10:57:41.284Z,1.30
2018-03-20T11:00:08.818Z,1.30
2018-03-20T11:02:36.326Z,1.20
2018-03-20T11:05:04.587Z,0.90
2018-03-20T11:07:32.856Z,0.60
2018-03-20T11:10:00.328Z,0.60
2018-03-20T11:12:28.580Z,0.20
2018-03-20T11:14:56.086Z,0.20
2018-03-20T11:17:23.577Z,0.00
2018-03-20T11:19:51.075Z,0.10
2018-03-20T11:22:18.574Z,0.10
2018-03-20T11:24:46.059Z,0.20
2018-03-20T11:27:13.538Z,0.00
2018-03-20T11:29:41.807Z,-0.30
2018-03-20T11:32:09.296Z,-0.30
2018-03-20T11:34:36.778Z,-0.20
2018-03-20T11:37:04.303Z,-0.20
2018-03-20T11:39:32.592Z,-0.20
2018-03-20T11:42:00.801Z,0.10
2018-03-20T11:44:29.205Z,0.00
2018-03-20T11:46:57.454Z,0.30
2018-03-20T11:49:24.932Z,0.30
2018-03-20T11:51:52.450Z,0.50
2018-03-20T11:54:20.688Z,0.90
2018-03-20T11:56:48.167Z,0.90
2018-03-20T11:59:16.438Z,1.00
2018-03-20T12:01:43.919Z,1.00
2018-03-20T12:04:14.439Z,1.20
2018-03-20T12:06:42.707Z,1.20
2018-03-20T12:09:22.680Z,0.80
2018-03-20T12:11:51.102Z,0.80
2018-03-20T12:14:18.586Z,0.70
2018-03-20T12:16:46.084Z,0.70
2018-03-20T12:19:15.522Z,0.80
2018-03-20T12:21:42.993Z,0.90
2018-03-20T12:24:10.466Z,0.70
2018-03-20T12:26:38.731Z,0.40
2018-03-20T12:29:06.224Z,0.40
2018-03-20T12:31:35.667Z,0.40
2018-03-20T12:34:04.682Z,0.20
2018-03-20T12:36:32.167Z,0.20
2018-03-20T12:39:00.481Z,-0.10
2018-03-20T12:41:28.738Z,0.00
2018-03-20T12:43:56.216Z,0.00
2018-03-20T12:46:23.722Z,0.20
2018-03-20T12:48:51.965Z,0.20
2018-03-20T12:51:19.451Z,0.20
2018-03-20T12:53:46.947Z,0.00
2018-03-20T12:56:15.198Z,0.20
2018-03-20T12:58:42.669Z,0.10
2018-03-20T13:01:10.949Z,0.30
2018-03-20T13:03:39.194Z,0.20
2018-03-20T13:06:06.683Z,0.20
2018-03-20T13:08:34.942Z,0.20
2018-03-20T13:11:02.426Z,0.20
2018-03-20T13:13:29.921Z,0.20
2018-03-20T13:15:57.414Z,0.30
2018-03-20T13:18:24.910Z,0.20
2018-03-20T13:20:52.424Z,0.20
2018-03-20T13:23:19.982Z,0.20
2018-03-20T13:25:47.401Z,0.00
2018-03-20T13:28:14.933Z,-0.10
2018-03-20T13:30:43.171Z,0.10
2018-03-20T13:33:10.652Z,0.00
2018-03-20T13:35:38.923Z,0.30
2018-03-20T13:38:07.174Z,0.20
2018-03-20T13:40:34.671Z,0.20
2018-03-20T13:43:02.153Z,0.20
2018-03-20T13:45:29.660Z,0.30
2018-03-20T13:47:57.138Z,0.40
2018-03-20T13:50:25.383Z,0.40
2018-03-20T13:52:52.908Z,0.40
2018-03-20T13:55:21.164Z,0.50
2018-03-20T13:57:48.642Z,0.50
2018-03-20T14:00:16.178Z,0.70
2018-03-20T14:02:43.672Z,0.80
2018-03-20T14:05:11.163Z,0.80
2018-03-20T14:07:39.430Z,0.20
2018-03-20T14:10:06.913Z,0.10
2018-03-20T14:12:34.391Z,0.30
2018-03-20T14:15:01.914Z,0.40
2018-03-20T14:17:30.167Z,0.20
2018-03-20T14:19:57.743Z,0.20
2018-03-20T14:22:26.027Z,0.20
2018-03-20T14:24:54.282Z,0.10
2018-03-20T14:27:21.788Z,0.10
2018-03-20T14:29:49.322Z,0.10
2018-03-20T14:32:17.565Z,0.20
2018-03-20T14:34:45.084Z,0.20
2018-03-20T14:37:12.586Z,0.30
2018-03-20T14:39:40.069Z,0.30
2018-03-20T14:42:08.351Z,0.30
2018-03-20T14:44:35.838Z,0.20
2018-03-20T14:47:03.337Z,0.30
2018-03-20T14:49:30.855Z,0.40
2018-03-20T14:51:58.342Z,0.40
2018-03-20T14:54:25.816Z,0.10
2018-03-20T14:56:53.424Z,0.00
2018-03-20T14:59:20.890Z,-0.20
2018-03-20T15:01:48.419Z,-0.20
2018-03-20T15:04:15.935Z,-0.40
2018-03-20T15:06:43.423Z,-0.40
2018-03-20T15:09:10.942Z,-0.20
2018-03-20T15:11:38.513Z,-0.20
2018-03-20T15:14:06.012Z,-0.30
2018-03-20T15:16:33.550Z,-0.30
2018-03-20T15:19:01.859Z,-0.40
2018-03-20T15:21:29.362Z,-0.40
2018-03-20T15:23:56.879Z,-0.40
2018-03-20T15:26:24.397Z,-0.40
2018-03-20T15:28:52.661Z,-0.40
2018-03-20T15:31:20.187Z,-0.40
2018-03-20T15:33:47.704Z,-0.40
2018-03-20T15:36:15.951Z,-0.50
2018-03-20T15:38:43.442Z,-0.50
2018-03-20T15:41:10.955Z,-0.50
2018-03-20T15:43:38.442Z,-0.60
2018-03-20T15:46:06.710Z,-0.60
2018-03-20T15:48:34.990Z,-0.70
2018-03-20T15:51:03.235Z,-0.80
2018-03-20T15:53:30.718Z,-0.80
2018-03-20T15:55:59.010Z,-0.80
2018-03-20T15:58:26.500Z,-0.80
2018-03-20T16:00:53.996Z,-0.80
2018-03-20T16:03:22.714Z,-0.80
2018-03-20T16:05:50.970Z,-0.80
2018-03-20T16:08:19.224Z,-0.80
2018-03-20T16:10:46.743Z,-0.80
2018-03-20T16:13:14.226Z,-0.80
2018-03-20T16:15:41.750Z,-0.80
2018-03-20T16:18:09.255Z,-0.90
2018-03-20T16:20:36.768Z,-0.80
2018-03-20T16:23:04.254Z,-0.90
2018-03-20T16:25:31.758Z,-0.90
2018-03-20T16:28:00.006Z,-1.00
2018-03-20T16:30:27.486Z,-1.10
2018-03-20T16:32:55.759Z,-1.10
2018-03-20T16:35:24.009Z,-1.30
2018-03-20T16:37:51.494Z,-1.30
2018-03-20T16:40:19.766Z,-1.30
2018-03-20T16:42:48.073Z,-1.30
2018-03-20T16:45:15.530Z,-1.40
2018-03-20T16:47:43.030Z,-1.40
2018-03-20T16:50:10.524Z,-1.50
2018-03-20T16:52:38.801Z,-1.60
2018-03-20T16:55:07.063Z,-1.70
2018-03-20T16:57:34.544Z,-1.70
2018-03-20T17:00:02.051Z,-1.70
2018-03-20T17:02:29.530Z,-1.80
2018-03-20T17:04:57.083Z,-1.80
2018-03-20T17:07:24.543Z,-1.90
2018-03-20T17:09:52.030Z,-1.90
2018-03-20T17:12:19.545Z,-2.00
2018-03-20T17:14:47.035Z,-2.00
2018-03-20T17:17:15.297Z,-2.00
2018-03-20T17:19:42.814Z,-2.10
2018-03-20T17:22:10.307Z,-2.20
2018-03-20T17:24:37.813Z,-2.30
2018-03-20T17:27:05.326Z,-2.30
2018-03-20T17:29:32.815Z,-2.30
2018-03-20T17:32:02.446Z,-2.30
2018-03-20T17:34:29.958Z,-2.30
2018-03-20T17:36:58.206Z,-2.20
2018-03-20T17:39:25.702Z,-2.30
2018-03-20T17:41:53.975Z,-2.30
2018-03-20T17:44:21.475Z,-2.30
2018-03-20T17:46:48.980Z,-2.30
2018-03-20T17:49:16.475Z,-2.30
2018-03-20T17:51:43.970Z,-2.30
2018-03-20T17:54:11.484Z,-2.20
2018-03-20T17:56:38.970Z,-2.20
2018-03-20T17:59:06.491Z,-2.30
2018-03-20T18:01:34.744Z,-2.20
2018-03-20T18:04:02.999Z,-2.20
2018-03-20T18:06:30.544Z,-2.20
2018-03-20T18:08:58.006Z,-2.20
2018-03-20T18:11:25.490Z,-2.20
2018-03-20T18:13:53.766Z,-2.10
2018-03-20T18:16:21.258Z,-2.20
2018-03-20T18:18:48.742Z,-2.10
2018-03-20T18:21:16.246Z,-2.10
2018-03-20T18:23:44.497Z,-2.00
2018-03-20T18:26:11.987Z,-2.10
2018-03-20T18:28:39.497Z,-2.00
2018-03-20T18:31:06.983Z,-2.00
2018-03-20T18:33:34.475Z,-2.00
2018-03-20T18:36:01.986Z,-2.00
2018-03-20T18:38:29.471Z,-2.00
2018-03-20T18:40:57.718Z,-2.00
2018-03-20T18:43:25.236Z,-2.10
2018-03-20T18:45:53.525Z,-2.00
2018-03-20T18:48:21.854Z,-2.00
2018-03-20T18:50:50.130Z,-2.00
2018-03-20T18:53:18.425Z,-2.00
2018-03-20T18:55:45.930Z,-2.00
2018-03-20T18:58:13.451Z,-2.00
2018-03-20T19:00:40.936Z,-1.90
2018-03-20T19:03:08.418Z,-1.90
2018-03-20T19:05:35.961Z,-1.90
2018-03-20T19:08:03.485Z,-1.90
2018-03-20T19:10:31.011Z,-1.80
2018-03-20T19:12:59.304Z,-1.90
2018-03-20T19:15:26.831Z,-1.90
2018-03-20T19:17:55.091Z,-1.80
2018-03-20T19:20:22.612Z,-1.80
2018-03-20T19:22:50.094Z,-1.80
2018-03-20T19:25:17.582Z,-1.80
2018-03-20T19:27:45.090Z,-1.80
2018-03-20T19:30:12.574Z,-1.70
2018-03-20T19:32:40.055Z,-1.80
2018-03-20T19:35:07.553Z,-1.70
2018-03-20T19:37:35.048Z,-1.80
2018-03-20T19:40:02.541Z,-1.70
2018-03-20T19:42:30.815Z,-1.70
2018-03-20T19:45:00.059Z,-1.70
2018-03-20T19:47:27.660Z,-1.70
2018-03-20T19:49:55.930Z,-1.70
2018-03-20T19:52:24.318Z,-1.80
2018-03-20T19:54:51.827Z,-1.70
2018-03-20T19:57:19.323Z,-1.80
2018-03-20T19:59:46.806Z,-1.80
2018-03-20T20:02:15.083Z,-1.90
2018-03-20T20:04:43.331Z,-1.90
2018-03-20T20:07:10.823Z,-1.90
2018-03-20T20:09:38.338Z,-1.90
2018-03-20T20:12:05.838Z,-2.00
2018-03-20T20:14:33.367Z,-2.00
2018-03-20T20:17:00.838Z,-2.10
2018-03-20T20:19:29.084Z,-2.20
2018-03-20T20:21:56.578Z,-2.20
2018-03-20T20:24:24.861Z,-2.30
2018-03-20T20:26:52.346Z,-2.30
2018-03-20T20:29:19.835Z,-2.30
2018-03-20T20:31:47.379Z,-2.30
2018-03-20T20:34:14.867Z,-2.50
2018-03-20T20:36:42.350Z,-2.50
2018-03-20T20:39:10.633Z,-2.50
2018-03-20T20:41:38.130Z,-2.50
2018-03-20T20:44:05.614Z,-2.60
2018-03-20T20:46:33.130Z,-2.70
2018-03-20T20:49:00.627Z,-2.60
2018-03-20T20:51:28.130Z,-2.60
2018-03-20T20:53:55.663Z,-2.70
2018-03-20T20:56:23.922Z,-2.70
2018-03-20T20:58:52.208Z,-2.70
2018-03-20T21:01:19.738Z,-2.70
2018-03-20T21:03:47.250Z,-2.70
2018-03-20T21:06:14.743Z,-2.70
2018-03-20T21:08:42.262Z,-2.70
2018-03-20T21:11:09.770Z,-2.70
2018-03-20T21:13:37.276Z,-2.70
2018-03-20T21:16:04.788Z,-2.70
2018-03-20T21:18:32.754Z,-2.70
2018-03-20T21:21:00.290Z,-2.70
2018-03-20T21:23:27.810Z,-2.80
2018-03-20T21:25:55.310Z,-2.80
2018-03-20T21:28:22.843Z,-2.80
2018-03-20T21:30:50.348Z,-2.70
2018-03-20T21:33:17.835Z,-2.70
2018-03-20T21:35:46.116Z,-2.80
2018-03-20T21:38:13.598Z,-2.70
2018-03-20T21:40:41.110Z,-2.80
2018-03-20T21:43:09.398Z,-2.80
2018-03-20T21:45:36.906Z,-2.80
2018-03-20T21:48:04.390Z,-2.80
2018-03-20T21:50:31.895Z,-2.70
2018-03-20T21:52:59.389Z,-2.70
2018-03-20T21:55:26.891Z,-2.70
2018-03-20T21:57:55.170Z,-2.50
2018-03-20T22:00:22.667Z,-2.50
2018-03-20T22:02:50.189Z,-2.60
2018-03-20T22:05:17.705Z,-2.60
2018-03-20T22:07:45.178Z,-2.60
2018-03-20T22:10:12.670Z,-2.60
2018-03-20T22:12:40.186Z,-2.60
2018-03-20T22:15:07.674Z,-2.70
2018-03-20T22:17:35.978Z,-2.80
2018-03-20T22:20:15.360Z,-2.80
2018-03-20T22:22:43.388Z,-2.80
2018-03-20T22:25:10.871Z,-2.80
2018-03-20T22:27:38.382Z,-2.90
2018-03-20T22:30:05.871Z,-3.00
2018-03-20T22:32:33.358Z,-3.10
2018-03-20T22:35:00.869Z,-3.20
2018-03-20T22:37:28.362Z,-3.20
2018-03-20T22:39:55.866Z,-3.30
2018-03-20T22:42:23.380Z,-3.20
2018-03-20T22:44:51.838Z,-3.30
2018-03-20T22:47:19.316Z,-3.30
2018-03-20T22:49:46.829Z,-3.20
2018-03-20T22:52:14.313Z,-3.20
2018-03-20T22:54:41.802Z,-3.20
2018-03-20T22:57:09.311Z,-3.20
2018-03-20T22:59:36.798Z,-3.20
2018-03-20T23:02:04.278Z,-3.20
2018-03-20T23:04:32.557Z,-3.30
2018-03-20T23:07:00.824Z,-3.30
2018-03-20T23:09:29.175Z,-3.30
2018-03-20T23:11:56.692Z,-3.40
2018-03-20T23:14:24.191Z,-3.40
2018-03-20T23:16:51.675Z,-3.30
2018-03-20T23:19:19.178Z,-3.30
2018-03-20T23:21:46.666Z,-3.20
2018-03-20T23:24:14.168Z,-3.20
2018-03-20T23:26:42.454Z,-3.20
2018-03-20T23:29:09.944Z,-3.20
2018-03-20T23:31:37.431Z,-3.20
2018-03-20T23:34:04.940Z,-3.20
2018-03-20T23:36:32.428Z,-3.10
2018-03-20T23:38:59.919Z,-3.10
2018-03-20T23:41:28.204Z,-3.10
2018-03-20T23:43:56.466Z,-3.00
2018-03-20T23:46:24.726Z,-3.00
2018-03-20T23:48:52.223Z,-3.10
2018-03-20T23:51:19.713Z,-3.00
2018-03-20T23:53:47.218Z,-3.10
2018-03-20T23:56:15.458Z,-2.90
2018-03-20T23:58:42.939Z,-2.90
